Time;durP1;ratioP1;P1;durP2;ratioP2;P2;SDS_P1;SDS_P2;PMS_P1;PMS_P2;Temp;Humidity;BMP_temperature;BMP_pressure;BME280_temperature;BME280_humidity;BME280_pressure;Samples;Min_cycle;Max_cycle;Signal;HPM_P1;HPM_P2
2022/09/28 00:01:34;;;;;;;;;;;12.20;71.10;;;7.99;92.37;94185.34;4983298;28;19913;-48
2022/09/28 00:04:08;;;;;;;;;;;12.20;71.10;;;7.99;92.07;94171.25;4991333;28;19917;-50
2022/09/28 00:06:40;;;;;;;;;;;12.20;71.10;;;7.98;92.10;94172.34;4993102;28;19909;-46
2022/09/28 00:09:13;;;;;;;;;;;12.20;71.10;;;7.98;92.02;94162.53;4987487;28;19989;-50
2022/09/28 00:11:45;;;;;;;;;;;12.20;71.00;;;7.98;91.92;94148.47;4984246;28;20678;-47
2022/09/28 00:14:14;;;;;;;;;;;12.20;71.00;;;7.95;92.15;94144.53;4991219;28;19962;-46
2022/09/28 00:16:47;;;;;;;;;;;12.20;70.90;;;7.91;92.02;94138.22;4974834;28;19913;-46
2022/09/28 00:19:16;;;;;;;;;;;12.20;70.90;;;7.90;91.46;94136.66;4993131;28;20340;-46
2022/09/28 00:21:52;;;;;;;;;;;12.20;71.60;;;7.94;91.30;94129.69;4973871;28;26895;-48
2022/09/28 00:24:21;;;;;;;;;;;12.20;70.90;;;7.95;91.48;94119.88;4974994;28;19909;-46
2022/09/28 00:26:55;;;;;;;;;;;12.20;70.80;;;7.90;91.53;94128.69;4987873;28;19910;-48
2022/09/28 00:29:30;;;;;;;;;;;12.20;70.80;;;7.92;91.06;94123.88;4940322;28;19918;-49
2022/09/28 00:32:01;;;;;;;;;;;12.20;70.90;;;7.93;91.45;94117.53;4956327;28;19991;-48
2022/09/28 00:34:34;;;;;;;;;;;12.20;70.80;;;8.00;90.78;94106.56;4970681;28;20360;-46
2022/09/28 00:37:02;;;;;;;;;;;12.20;70.80;;;8.01;90.82;94092.22;4955964;28;20008;-47
2022/09/28 00:39:41;;;;;;;;;;;12.20;70.80;;;8.02;90.96;94101.75;4970870;28;20381;-48
2022/09/28 00:42:25;;;;;;;;;;;12.30;70.80;;;8.03;90.74;94087.44;4958961;28;19941;-49
2022/09/28 00:44:58;;;;;;;;;;;12.30;70.70;;;8.07;90.54;94083.13;4969956;28;19949;-47
2022/09/28 00:47:53;;;;;;;;;;;12.30;70.70;;;8.13;89.68;94075.91;4971734;28;19909;-46
2022/09/28 00:50:34;;;;;;;;;;;12.40;70.80;;;8.18;89.24;94075.81;4971257;28;19909;-49
2022/09/28 00:53:17;;;;;;;;;;;12.40;70.70;;;8.21;90.43;94062.81;4983488;28;19920;-48
2022/09/28 00:55:56;;;;;;;;;;;12.40;70.60;;;8.21;90.29;94051.38;4972789;28;19921;-47
2022/09/28 00:58:49;;;;;;;;;;;12.40;70.50;;;8.24;89.41;94058.75;4970588;28;19932;-47
2022/09/28 01:01:16;;;;;;;;;;;12.50;70.50;;;8.26;89.28;94052.09;4987721;28;19909;-46
2022/09/28 01:03:46;;;;;;;;;;;12.50;70.50;;;8.28;90.06;94055.28;4970049;28;20287;-50
2022/09/28 01:06:23;;;;;;;;;;;12.50;70.40;;;8.29;89.88;94053.41;4971414;28;19909;-49
2022/09/28 01:08:54;;;;;;;;;;;12.50;70.30;;;8.28;89.86;94052.63;4970741;28;20848;-46
2022/09/28 01:11:24;;;;;;;;;;;12.50;70.30;;;8.30;89.21;94045.16;4983904;28;19910;-48
2022/09/28 01:14:00;;;;;;;;;;;12.50;70.20;;;8.29;89.90;94048.88;4979791;28;19910;-46
2022/09/28 01:17:05;;;;;;;;;;;12.50;70.20;;;8.30;90.12;94041.69;4970513;28;19920;-45
2022/09/28 01:20:10;;;;;;;;;;;12.50;70.20;;;8.31;90.61;94032.69;4972469;28;20006;-47
2022/09/28 01:23:12;;;;;;;;;;;12.50;70.20;;;8.26;90.72;94028.22;4969934;28;20347;-49
2022/09/28 01:26:12;;;;;;;;;;;12.50;70.20;;;8.27;90.97;94029.81;4987123;28;19956;-50
2022/09/28 01:28:44;;;;;;;;;;;12.50;70.30;;;8.23;90.37;94020.84;4970214;28;19916;-47
2022/09/28 01:31:15;;;;;;;;;;;12.50;70.30;;;8.27;91.46;94016.56;4958155;28;19914;-46
2022/09/28 01:34:02;;;;;;;;;;;12.50;70.20;;;8.23;90.81;94018.19;4973134;28;20466;-50
2022/09/28 01:36:49;;;;;;;;;;;12.50;70.20;;;8.22;91.34;94008.66;4991601;28;20299;-46
2022/09/28 01:39:47;;;;;;;;;;;12.40;70.10;;;8.22;91.19;94007.88;4973464;28;19964;-48
2022/09/28 01:42:28;;;;;;;;;;;12.50;70.30;;;8.26;92.32;94003.56;4984466;28;19952;-52
2022/09/28 01:45:27;;;;;;;;;;;12.40;70.20;;;8.23;92.37;94001.50;4987854;28;20297;-47
2022/09/28 01:48:01;;;;;;;;;;;12.40;70.10;;;8.17;92.61;94003.41;4958144;28;20276;-48
2022/09/28 01:50:35;;;;;;;;;;;12.40;70.10;;;8.19;92.55;93995.19;4973650;28;19932;-47
2022/09/28 01:53:34;;;;;;;;;;;12.50;70.20;;;8.20;93.30;93994.09;4989459;28;19952;-46
2022/09/28 01:56:11;;;;;;;;;;;12.40;70.10;;;8.15;93.13;93991.53;4989957;28;19940;-47
2022/09/28 01:58:42;;;;;;;;;;;12.40;70.20;;;8.14;93.22;93987.31;4973035;28;20011;-47
2022/09/28 02:01:53;;;;;;;;;;;12.40;70.20;;;8.16;93.24;93977.19;4974052;28;19909;-47
2022/09/28 02:04:31;;;;;;;;;;;12.40;70.30;;;8.14;93.48;93972.16;4936410;28;19944;-49
2022/09/28 02:07:24;;;;;;;;;;;12.40;70.30;;;8.13;93.53;93972.47;4975064;28;19910;-48
2022/09/28 02:09:58;;;;;;;;;;;12.40;70.30;;;8.09;93.71;93972.25;4974590;28;19909;-46
2022/09/28 02:12:50;;;;;;;;;;;12.40;70.30;;;8.07;93.93;93969.88;4989729;28;19909;-46
2022/09/28 02:15:50;;;;;;;;;;;12.30;70.30;;;8.06;93.83;93963.00;4986469;28;19914;-46
2022/09/28 02:18:19;;;;;;;;;;;12.30;70.40;;;8.03;94.55;93958.28;4932353;28;19909;-48
2022/09/28 02:21:26;;;;;;;;;;;12.30;70.40;;;7.99;94.92;93943.22;4960111;28;19913;-50
2022/09/28 02:24:15;;;;;;;;;;;12.30;70.40;;;7.97;94.77;93937.44;4990795;28;20372;-46
2022/09/28 02:26:48;;;;;;;;;;;12.20;70.30;;;7.97;95.30;93929.47;4968935;28;20120;-47
2022/09/28 02:31:46;;;;;;;;;;;12.20;70.40;;;7.91;95.89;93934.06;4986924;28;19925;-48
2022/09/28 02:34:21;;;;;;;;;;;12.20;70.40;;;7.88;96.50;93927.47;4994880;28;20387;-50
2022/09/28 02:36:50;;;;;;;;;;;12.20;70.50;;;7.85;96.57;93930.69;4986960;28;20352;-49
2022/09/28 02:39:18;;;;;;;;;;;12.10;70.50;;;7.86;96.92;93915.56;5004002;28;19959;-50
2022/09/28 02:42:33;;;;;;;;;;;12.10;70.50;;;7.84;97.10;93925.69;4992101;28;20000;-46
2022/09/28 02:45:35;;;;;;;;;;;12.10;70.50;;;7.78;97.79;93917.00;4977733;28;19920;-50
2022/09/28 02:48:39;;;;;;;;;;;12.10;70.60;;;7.71;98.31;93916.59;4983541;28;19968;-48
2022/09/28 02:52:01;;;;;;;;;;;12.10;70.70;;;7.64;99.16;93908.19;4950612;28;19956;-54
2022/09/28 02:54:52;;;;;;;;;;;12.00;70.80;;;7.74;99.01;93899.31;4990348;28;19957;-49
2022/09/28 02:57:58;;;;;;;;;;;12.00;70.90;;;7.63;99.68;93911.94;4985727;28;20359;-49
2022/09/28 03:00:24;;;;;;;;;;;12.00;71.00;;;7.57;99.82;93911.19;4978933;28;20407;-53
2022/09/28 03:03:16;;;;;;;;;;;11.90;71.00;;;7.64;100.00;93913.50;4986720;28;19941;-49
2022/09/28 03:06:19;;;;;;;;;;;11.90;71.10;;;7.61;99.89;93906.13;4990872;28;20322;-51
2022/09/28 03:09:11;;;;;;;;;;;11.90;71.10;;;7.61;100.00;93903.47;4993762;28;19939;-48
2022/09/28 03:11:55;;;;;;;;;;;11.90;71.20;;;7.65;100.00;93909.78;4983830;28;20011;-49
2022/09/28 03:14:21;;;;;;;;;;;11.90;71.20;;;7.55;100.00;93900.13;4992287;28;19919;-48
2022/09/28 03:16:47;;;;;;;;;;;11.90;71.30;;;7.57;100.00;93889.22;4992271;28;19909;-53
2022/09/28 03:19:18;;;;;;;;;;;11.90;71.30;;;7.58;100.00;93877.53;4974948;28;19945;-53
2022/09/28 03:21:44;;;;;;;;;;;11.90;71.40;;;7.57;100.00;93882.06;4983364;28;20004;-48
2022/09/28 03:24:09;;;;;;;;;;;11.90;71.50;;;7.57;100.00;93871.44;4993615;28;19996;-54
2022/09/28 03:26:41;;;;;;;;;;;11.90;71.40;;;7.59;100.00;93871.19;4994573;28;20342;-51
2022/09/28 03:29:13;;;;;;;;;;;11.90;71.40;;;7.54;100.00;93869.38;5001895;28;19917;-51
2022/09/28 03:31:45;;;;;;;;;;;11.90;71.50;;;7.60;100.00;93862.16;4995897;28;20122;-50
2022/09/28 03:34:14;;;;;;;;;;;11.90;71.50;;;7.67;100.00;93867.09;4999747;28;19920;-50
2022/09/28 03:36:43;;;;;;;;;;;11.90;71.50;;;7.52;100.00;93876.84;4980213;28;20341;-52
2022/09/28 03:39:14;;;;;;;;;;;11.90;71.60;;;7.51;100.00;93885.06;4996044;28;19918;-47
2022/09/28 03:41:40;;;;;;;;;;;11.90;71.60;;;7.54;100.00;93868.59;4971981;28;19962;-51
2022/09/28 03:44:05;;;;;;;;;;;11.90;71.70;;;7.55;100.00;93872.81;4995579;28;20008;-49
2022/09/28 03:46:31;;;;;;;;;;;11.90;71.70;;;7.49;100.00;93871.31;4996790;28;20568;-51
2022/09/28 03:49:00;;;;;;;;;;;11.90;71.70;;;7.45;100.00;93871.09;4988753;28;19914;-51
2022/09/28 03:51:26;;;;;;;;;;;11.90;71.70;;;7.44;100.00;93880.13;4984571;28;19916;-48
2022/09/28 03:53:51;;;;;;;;;;;11.90;71.80;;;7.46;100.00;93882.47;4979169;28;19909;-45
2022/09/28 03:56:20;;;;;;;;;;;11.90;71.90;;;7.45;100.00;93879.03;4980227;28;19921;-49
2022/09/28 03:58:46;;;;;;;;;;;11.90;72.70;;;7.51;100.00;93869.94;4991371;28;19987;-49
2022/09/28 04:01:16;;;;;;;;;;;11.80;71.90;;;7.51;100.00;93864.66;4992121;28;19960;-50
2022/09/28 04:03:43;;;;;;;;;;;11.90;72.00;;;7.61;100.00;93864.50;4982583;28;19909;-50
2022/09/28 04:06:15;;;;;;;;;;;11.80;71.90;;;7.64;100.00;93863.94;4992186;28;20155;-54
2022/09/28 04:08:43;;;;;;;;;;;11.90;72.00;;;7.69;100.00;93852.47;4993797;28;19909;-52
2022/09/28 04:11:09;;;;;;;;;;;11.90;71.90;;;7.68;100.00;93845.63;4992124;28;20302;-51
2022/09/28 04:13:36;;;;;;;;;;;12.00;71.90;;;7.70;100.00;93845.31;4982020;28;19957;-53
2022/09/28 04:16:03;;;;;;;;;;;12.00;71.90;;;7.66;100.00;93839.81;5001926;28;20370;-52
2022/09/28 04:18:41;;;;;;;;;;;12.00;71.80;;;7.61;100.00;93845.94;4982445;28;20001;-54
2022/09/28 04:21:18;;;;;;;;;;;12.00;71.80;;;7.62;100.00;93846.75;4985417;28;20393;-50
2022/09/28 04:23:47;;;;;;;;;;;12.00;71.70;;;7.60;100.00;93836.44;4973186;28;19909;-54
2022/09/28 04:26:24;;;;;;;;;;;12.00;71.80;;;7.62;100.00;93841.47;4991273;28;20445;-50
2022/09/28 04:31:50;;;;;;;;;;;12.00;71.80;;;7.68;100.00;93839.50;4981728;28;20387;-54
2022/09/28 04:34:20;;;;;;;;;;;12.00;71.90;;;7.62;100.00;93836.16;4974490;28;19910;-54
2022/09/28 04:36:50;;;;;;;;;;;12.00;71.90;;;7.59;100.00;93820.84;4991333;28;20011;-53
2022/09/28 04:39:19;;;;;;;;;;;12.00;72.00;;;7.61;100.00;93827.41;4984956;28;19940;-50
2022/09/28 04:41:47;;;;;;;;;;;11.90;71.90;;;7.67;100.00;93835.28;4990108;28;19910;-52
2022/09/28 04:44:16;;;;;;;;;;;12.00;72.00;;;7.69;100.00;93830.50;4979584;28;19909;-51
2022/09/28 04:46:45;;;;;;;;;;;12.00;72.00;;;7.65;100.00;93832.94;4996806;28;19916;-54
2022/09/28 04:49:11;;;;;;;;;;;12.00;72.00;;;7.65;100.00;93823.13;4991678;28;19913;-52
2022/09/28 04:51:42;;;;;;;;;;;12.00;72.00;;;7.63;100.00;93825.25;5000699;28;19916;-51
2022/09/28 04:54:21;;;;;;;;;;;12.00;72.00;;;7.53;100.00;93825.41;4971316;28;19963;-54
2022/09/28 04:56:51;;;;;;;;;;;12.00;72.10;;;7.59;100.00;93818.97;4983710;28;20278;-54
2022/09/28 04:59:17;;;;;;;;;;;12.00;72.10;;;7.64;100.00;93808.28;4980837;28;19917;-52
2022/09/28 05:01:43;;;;;;;;;;;12.00;72.20;;;7.67;100.00;93814.09;4977563;28;19917;-50
2022/09/28 05:04:09;;;;;;;;;;;12.00;72.20;;;7.71;100.00;93813.22;4981309;28;20037;-51
2022/09/28 05:06:38;;;;;;;;;;;12.00;72.20;;;7.74;100.00;93817.16;4988982;28;20008;-51
2022/09/28 05:09:08;;;;;;;;;;;12.00;72.20;;;7.77;100.00;93817.38;5003754;28;20256;-49
2022/09/28 05:11:43;;;;;;;;;;;12.10;72.20;;;7.79;100.00;93811.78;4992298;28;19945;-48
2022/09/28 05:14:20;;;;;;;;;;;12.10;72.20;;;7.80;100.00;93816.81;4979874;28;20278;-50
2022/09/28 05:16:52;;;;;;;;;;;12.10;72.20;;;7.85;100.00;93821.22;5002446;28;20008;-51
2022/09/28 05:19:21;;;;;;;;;;;12.10;72.20;;;7.86;100.00;93804.22;5006325;28;19967;-48
2022/09/28 05:21:47;;;;;;;;;;;12.20;72.20;;;7.86;100.00;93804.22;4987847;28;20208;-51
2022/09/28 05:24:19;;;;;;;;;;;12.20;72.10;;;7.86;100.00;93806.88;5005010;28;19918;-50
2022/09/28 05:26:45;;;;;;;;;;;12.20;72.10;;;7.81;100.00;93807.75;4978213;28;19913;-48
2022/09/28 05:29:19;;;;;;;;;;;12.20;72.00;;;7.82;100.00;93811.19;5003371;28;20089;-48
2022/09/28 05:31:47;;;;;;;;;;;12.20;72.00;;;7.85;100.00;93805.31;4983864;28;20300;-49
2022/09/28 05:34:16;;;;;;;;;;;12.20;72.00;;;7.89;100.00;93801.00;4982165;28;19909;-48
2022/09/28 05:36:44;;;;;;;;;;;12.20;72.00;;;7.91;100.00;93798.84;4987450;28;19910;-48
2022/09/28 05:39:16;;;;;;;;;;;12.30;72.00;;;7.91;100.00;93792.78;4978664;28;19917;-47
2022/09/28 05:41:44;;;;;;;;;;;12.30;72.00;;;7.95;100.00;93802.50;4990175;28;19916;-49
2022/09/28 05:44:10;;;;;;;;;;;12.30;72.00;;;7.96;100.00;93801.44;4980172;28;19913;-49
2022/09/28 05:46:42;;;;;;;;;;;12.30;72.00;;;7.98;100.00;93803.78;4987882;28;19916;-50
2022/09/28 05:49:07;;;;;;;;;;;12.30;72.00;;;7.99;100.00;93813.28;5001364;28;20279;-46
2022/09/28 05:51:33;;;;;;;;;;;12.40;72.10;;;7.96;100.00;93817.34;4987941;28;20009;-48
2022/09/28 05:54:02;;;;;;;;;;;12.40;72.10;;;7.99;100.00;93816.75;4998533;28;20321;-49
2022/09/28 05:56:30;;;;;;;;;;;12.30;72.00;;;8.03;100.00;93807.13;4989190;28;19914;-48
2022/09/28 05:58:57;;;;;;;;;;;12.40;72.10;;;8.02;100.00;93805.56;4989921;28;19909;-51
2022/09/28 06:01:25;;;;;;;;;;;12.40;72.10;;;8.04;100.00;93802.63;4989840;28;19921;-48
2022/09/28 06:03:51;;;;;;;;;;;12.40;72.00;;;8.09;100.00;93805.19;4990272;28;20044;-52
2022/09/28 06:06:20;;;;;;;;;;;12.40;72.00;;;8.08;100.00;93798.28;4990710;28;20004;-48
2022/09/28 06:08:48;;;;;;;;;;;12.50;72.10;;;8.09;100.00;93805.19;4985614;28;19916;-49
2022/09/28 06:11:17;;;;;;;;;;;12.50;72.10;;;8.05;100.00;93802.34;4999480;28;19909;-48
2022/09/28 06:13:46;;;;;;;;;;;12.50;72.10;;;8.13;100.00;93805.38;4985736;28;19916;-51
2022/09/28 06:16:18;;;;;;;;;;;12.50;72.10;;;8.14;100.00;93809.59;4962280;28;19920;-46
2022/09/28 06:18:50;;;;;;;;;;;12.50;72.20;;;8.09;100.00;93816.59;4989964;28;20271;-48
2022/09/28 06:21:19;;;;;;;;;;;12.60;72.30;;;8.14;100.00;93812.25;4969897;28;19909;-50
2022/09/28 06:23:51;;;;;;;;;;;12.60;72.40;;;8.23;100.00;93821.13;4978746;28;19953;-48
2022/09/28 06:26:20;;;;;;;;;;;12.60;72.40;;;8.20;100.00;93822.47;4969860;28;19913;-49
2022/09/28 06:28:48;;;;;;;;;;;12.60;72.50;;;8.24;100.00;93826.16;4987286;28;19971;-50
2022/09/28 06:31:14;;;;;;;;;;;12.60;72.60;;;8.26;100.00;93823.19;4971306;28;19918;-50
2022/09/28 06:34:00;;;;;;;;;;;12.60;72.70;;;8.33;100.00;93828.88;4980043;28;19920;-48
2022/09/28 06:36:32;;;;;;;;;;;12.70;73.00;;;8.43;100.00;93833.25;4990548;28;19960;-49
2022/09/28 06:39:07;;;;;;;;;;;12.70;72.90;;;8.44;100.00;93832.19;4994055;28;19909;-50
2022/09/28 06:41:33;;;;;;;;;;;12.80;73.00;;;8.46;100.00;93822.88;4999303;28;19935;-46
2022/09/28 06:44:02;;;;;;;;;;;12.80;73.00;;;8.48;100.00;93833.19;4993137;28;19914;-50
2022/09/28 06:46:36;;;;;;;;;;;12.80;73.10;;;8.51;100.00;93836.03;4976092;28;19966;-50
2022/09/28 06:49:03;;;;;;;;;;;12.80;73.10;;;8.54;100.00;93846.06;4994464;28;19916;-51
2022/09/28 06:51:35;;;;;;;;;;;12.80;73.10;;;8.59;100.00;93853.16;4991985;28;19909;-48
2022/09/28 06:54:02;;;;;;;;;;;12.90;73.10;;;8.62;100.00;93860.53;4993047;28;20059;-51
2022/09/28 06:56:28;;;;;;;;;;;12.90;73.00;;;8.63;100.00;93856.00;4991948;28;19940;-50
2022/09/28 06:58:54;;;;;;;;;;;12.90;73.00;;;8.65;100.00;93853.81;5001178;28;19910;-50
2022/09/28 07:01:20;;;;;;;;;;;12.90;73.70;;;8.65;100.00;93853.81;4988377;28;19909;-54
2022/09/28 07:03:48;;;;;;;;;;;13.00;73.00;;;8.63;100.00;93858.66;4984718;28;19916;-50
2022/09/28 07:06:14;;;;;;;;;;;13.00;73.00;;;8.65;100.00;93854.63;4993494;28;19913;-48
2022/09/28 07:08:46;;;;;;;;;;;13.00;72.90;;;8.65;100.00;93856.47;4985317;28;20355;-52
2022/09/28 07:11:12;;;;;;;;;;;13.00;72.90;;;8.70;100.00;93851.88;4990603;28;19909;-48
2022/09/28 07:13:41;;;;;;;;;;;13.10;72.90;;;8.64;100.00;93860.22;4983695;28;19913;-50
2022/09/28 07:16:07;;;;;;;;;;;13.10;73.00;;;8.68;100.00;93871.81;4992707;28;19924;-49
2022/09/28 07:18:33;;;;;;;;;;;13.10;72.90;;;8.71;100.00;93873.88;4974404;28;19910;-49
2022/09/28 07:21:06;;;;;;;;;;;13.10;72.90;;;8.73;100.00;93875.16;4976192;28;19936;-50
2022/09/28 07:23:35;;;;;;;;;;;13.10;72.90;;;8.79;100.00;93868.69;4993366;28;19910;-50
2022/09/28 07:26:05;;;;;;;;;;;13.10;72.90;;;8.79;100.00;93879.31;4975789;28;19913;-50
2022/09/28 07:28:32;;;;;;;;;;;13.10;72.90;;;8.89;100.00;93883.63;4979390;28;19917;-49
2022/09/28 07:30:58;;;;;;;;;;;13.20;72.90;;;8.91;100.00;93883.34;4991885;28;19925;-49
2022/09/28 07:33:26;;;;;;;;;;;13.20;72.90;;;8.93;100.00;93889.13;4990612;28;19959;-47
2022/09/28 07:35:54;;;;;;;;;;;13.30;72.90;;;8.92;100.00;93883.03;4985381;28;19918;-46
2022/09/28 07:38:20;;;;;;;;;;;13.30;72.90;;;8.91;100.00;93880.69;4972718;28;20372;-49
2022/09/28 07:43:33;;;;;;;;;;;13.40;72.80;;;8.90;100.00;93895.84;4993404;28;19936;-48
2022/09/28 07:45:58;;;;;;;;;;;13.40;72.70;;;8.88;100.00;93903.31;4986220;28;19913;-52
2022/09/28 07:48:24;;;;;;;;;;;13.40;72.80;;;8.95;100.00;93901.03;4989896;28;19949;-49
2022/09/28 07:50:55;;;;;;;;;;;13.40;72.70;;;8.92;100.00;93895.53;4989335;28;22486;-50
2022/09/28 07:53:24;;;;;;;;;;;13.40;72.70;;;8.96;100.00;93899.16;4981645;28;19916;-50
2022/09/28 07:56:03;;;;;;;;;;;13.50;72.80;;;9.03;100.00;93899.59;4990890;28;19943;-46
2022/09/28 07:58:31;;;;;;;;;;;13.50;73.50;;;9.07;100.00;93897.91;4974392;28;19909;-49
2022/09/28 08:01:01;;;;;;;;;;;13.60;72.80;;;9.11;100.00;93898.88;4970795;28;19910;-49
2022/09/28 08:03:30;;;;;;;;;;;13.60;72.80;;;9.14;100.00;93898.28;4990586;28;19909;-53
2022/09/28 08:06:08;;;;;;;;;;;13.70;72.70;;;9.16;100.00;93898.00;4987549;28;20459;-49
2022/09/28 08:08:34;;;;;;;;;;;13.80;72.80;;;9.18;100.00;93896.63;4985226;28;19913;-51
2022/09/28 08:11:01;;;;;;;;;;;13.80;72.80;;;9.19;100.00;93902.72;4990015;28;19917;-50
2022/09/28 08:13:26;;;;;;;;;;;13.80;72.70;;;9.13;100.00;93911.88;4986921;28;20396;-49
2022/09/28 08:15:53;;;;;;;;;;;13.80;72.70;;;9.16;100.00;93933.31;4970858;28;19913;-47
2022/09/28 08:18:20;;;;;;;;;;;13.80;72.70;;;9.13;100.00;93933.13;4988569;28;19909;-49
2022/09/28 08:23:31;;;;;;;;;;;13.80;72.70;;;9.12;100.00;93937.66;4989454;28;20111;-51
2022/09/28 08:25:57;;;;;;;;;;;13.70;72.70;;;9.14;100.00;93942.66;4986232;28;20023;-50
2022/09/28 08:28:24;;;;;;;;;;;13.80;73.60;;;9.19;100.00;93943.34;4988059;28;19913;-51
2022/09/28 08:30:50;;;;;;;;;;;13.80;72.90;;;9.14;100.00;93940.78;4987523;28;20290;-45
2022/09/28 08:33:20;;;;;;;;;;;13.80;72.90;;;9.18;100.00;93935.66;4989922;28;19975;-44
2022/09/28 08:35:46;;;;;;;;;;;13.80;72.80;;;9.25;100.00;93944.06;4990388;28;19913;-44
2022/09/28 08:38:18;;;;;;;;;;;13.80;72.90;;;9.30;100.00;93946.59;4989969;28;20378;-45
2022/09/28 08:40:59;;;;;;;;;;;13.80;72.90;;;9.38;100.00;93950.44;4982579;28;19909;-45
2022/09/28 08:43:52;;;;;;;;;;;13.80;72.90;;;9.43;100.00;93959.13;5002265;28;20435;-46
2022/09/28 08:46:25;;;;;;;;;;;13.90;73.00;;;9.50;100.00;93962.16;4999142;28;19919;-44
2022/09/28 08:49:13;;;;;;;;;;;13.90;72.90;;;9.52;100.00;93951.22;4987505;28;20029;-44
2022/09/28 08:51:53;;;;;;;;;;;13.90;72.90;;;9.55;100.00;93955.94;4988033;28;19984;-44
2022/09/28 08:54:49;;;;;;;;;;;14.00;72.80;;;9.64;100.00;93950.72;4988794;28;19918;-55
2022/09/28 08:57:21;;;;;;;;;;;14.10;72.80;;;9.75;100.00;93944.09;4971643;28;20015;-47
2022/09/28 08:59:48;;;;;;;;;;;14.20;72.80;;;9.85;100.00;93932.47;4969455;28;19914;-47
2022/09/28 09:02:32;;;;;;;;;;;14.40;72.70;;;9.91;100.00;93940.03;4984764;28;19910;-47
2022/09/28 09:05:04;;;;;;;;;;;14.50;72.60;;;9.97;100.00;93940.72;4985621;28;20265;-47
2022/09/28 09:07:52;;;;;;;;;;;14.70;72.40;;;10.06;100.00;93933.59;4976349;28;20348;-44
2022/09/28 09:10:51;;;;;;;;;;;14.80;72.00;;;10.05;100.00;93945.28;5004631;28;19921;-44
2022/09/28 09:13:40;;;;;;;;;;;15.00;72.00;;;10.08;100.00;93949.22;4989913;28;19910;-46
2022/09/28 09:16:54;;;;;;;;;;;15.10;71.70;;;10.23;100.00;93956.88;4981524;28;20269;-44
2022/09/28 09:19:34;;;;;;;;;;;15.10;71.60;;;10.22;100.00;93955.31;4991194;28;20287;-45
2022/09/28 09:22:56;;;;;;;;;;;15.10;71.50;;;10.25;100.00;93960.03;4987707;28;19967;-49
2022/09/28 09:25:28;;;;;;;;;;;15.10;71.50;;;10.18;100.00;93963.09;4971829;28;19909;-44
2022/09/28 09:28:21;;;;;;;;;;;15.20;71.50;;;10.26;100.00;93971.44;4970674;28;19996;-45
2022/09/28 09:31:10;;;;;;;;;;;15.20;71.40;;;10.32;100.00;93972.94;4990835;28;19921;-53
2022/09/28 09:34:25;;;;;;;;;;;15.20;71.40;;;10.31;100.00;93984.66;4989163;28;19924;-44
2022/09/28 09:37:22;;;;;;;;;;;15.20;71.30;;;10.39;100.00;93981.28;4989225;28;19914;-44
2022/09/28 09:40:01;;;;;;;;;;;15.20;71.30;;;10.32;99.23;93973.72;4999620;28;19917;-46
2022/09/28 09:43:13;;;;;;;;;;;15.20;71.30;;;10.42;99.49;93983.34;4973958;28;20467;-44
2022/09/28 09:46:10;;;;;;;;;;;15.30;71.20;;;10.45;99.69;93982.75;4982429;28;20009;-45
2022/09/28 09:49:07;;;;;;;;;;;15.40;71.10;;;10.41;98.91;93968.47;4982301;28;20459;-45
2022/09/28 09:52:05;;;;;;;;;;;15.50;71.00;;;10.49;98.81;93969.63;4982448;28;19917;-51
2022/09/28 09:54:59;;;;;;;;;;;15.50;70.80;;;10.58;98.27;93970.47;5003708;28;19921;-44
2022/09/28 09:57:41;;;;;;;;;;;15.50;70.80;;;10.63;98.29;93967.69;4982382;28;20000;-51
2022/09/28 10:00:17;;;;;;;;;;;15.50;70.70;;;10.60;97.34;93965.63;4962108;28;20002;-45
2022/09/28 10:02:47;;;;;;;;;;;15.50;70.70;;;10.51;96.87;93967.44;4990519;28;20332;-46
2022/09/28 10:05:26;;;;;;;;;;;15.50;70.60;;;10.53;97.29;93974.03;4973875;28;19909;-46
2022/09/28 10:08:07;;;;;;;;;;;15.50;70.60;;;10.43;95.95;93976.94;4989297;28;19916;-44
2022/09/28 10:11:11;;;;;;;;;;;15.50;70.60;;;10.39;95.81;93971.41;4990278;28;19975;-47
2022/09/28 10:13:38;;;;;;;;;;;15.40;70.60;;;10.39;96.96;93979.41;4989972;28;19909;-43
2022/09/28 10:16:06;;;;;;;;;;;15.30;70.50;;;10.50;97.61;93974.66;4992306;28;19913;-47
2022/09/28 10:18:33;;;;;;;;;;;15.30;70.70;;;10.47;96.83;93977.13;4993828;28;19996;-44
2022/09/28 10:20:59;;;;;;;;;;;15.30;70.80;;;10.52;96.37;93971.66;4991848;28;19917;-44
2022/09/28 10:23:34;;;;;;;;;;;15.20;70.80;;;10.53;97.16;93974.03;4980651;28;19920;-49
2022/09/28 10:26:14;;;;;;;;;;;15.20;70.80;;;10.56;97.42;93973.44;4973857;28;19914;-44
2022/09/28 10:28:57;;;;;;;;;;;15.30;70.90;;;10.62;97.72;93966.09;4957161;28;20964;-48
2022/09/28 10:31:45;;;;;;;;;;;15.40;71.00;;;10.64;97.51;93971.91;4974537;28;19953;-44
2022/09/28 10:34:14;;;;;;;;;;;15.50;71.00;;;10.72;97.55;93973.84;4991193;28;19936;-47
2022/09/28 10:37:23;;;;;;;;;;;15.50;70.80;;;10.76;96.98;93972.16;4980049;28;19917;-44
2022/09/28 10:39:53;;;;;;;;;;;15.50;70.80;;;10.70;97.04;93978.69;4984675;28;20346;-46
2022/09/28 10:42:32;;;;;;;;;;;15.50;70.90;;;10.75;97.48;93986.56;4974254;28;19945;-50
2022/09/28 10:45:31;;;;;;;;;;;15.60;70.70;;;10.82;97.21;93988.78;4970015;28;19913;-46
2022/09/28 10:48:00;;;;;;;;;;;15.70;70.50;;;10.76;96.02;93982.81;4975734;28;19916;-45
2022/09/28 10:50:27;;;;;;;;;;;15.80;70.30;;;10.78;95.76;93990.47;4986704;28;19997;-44
2022/09/28 10:53:20;;;;;;;;;;;15.90;70.10;;;10.84;96.08;93981.25;4988203;28;19909;-45
2022/09/28 10:56:00;;;;;;;;;;;15.90;70.10;;;10.97;95.97;93968.97;4989606;28;19960;-46
2022/09/28 10:58:41;;;;;;;;;;;16.00;70.00;;;11.10;95.29;93970.78;4996433;28;20384;-44
2022/09/28 11:01:23;;;;;;;;;;;16.30;69.90;;;11.26;94.91;93963.16;4990199;28;19963;-44
2022/09/28 11:04:00;;;;;;;;;;;16.50;69.70;;;11.45;94.60;93976.25;4967888;28;19916;-52
2022/09/28 11:06:39;;;;;;;;;;;16.70;69.60;;;11.61;94.55;93974.72;4992320;28;20322;-44
2022/09/28 11:09:40;;;;;;;;;;;16.90;69.60;;;11.56;89.66;93981.00;4986789;28;19931;-47
2022/09/28 11:12:19;;;;;;;;;;;17.00;69.50;;;11.48;90.88;93988.97;4981218;28;20296;-45
2022/09/28 11:14:51;;;;;;;;;;;16.90;69.20;;;11.58;92.00;93983.34;4989573;28;20448;-46
2022/09/28 11:17:31;;;;;;;;;;;16.90;69.20;;;11.74;92.32;93975.69;4990580;28;19916;-45
2022/09/28 11:20:24;;;;;;;;;;;17.00;69.20;;;11.66;88.97;93984.44;4984376;28;20287;-46
2022/09/28 11:23:32;;;;;;;;;;;17.00;69.20;;;11.55;89.92;93975.94;4992993;28;19909;-48
2022/09/28 11:26:05;;;;;;;;;;;16.90;69.00;;;11.54;88.47;93977.84;4979671;28;20043;-50
2022/09/28 11:28:36;;;;;;;;;;;16.70;69.00;;;11.52;90.47;93980.00;4972352;28;20491;-44
2022/09/28 11:31:05;;;;;;;;;;;16.70;69.10;;;11.46;89.58;93975.91;4982480;28;19967;-44
2022/09/28 11:33:43;;;;;;;;;;;16.70;69.10;;;11.49;91.25;93979.84;4967661;28;19918;-49
2022/09/28 11:36:25;;;;;;;;;;;16.60;69.00;;;11.49;90.95;93979.84;4987346;28;19967;-45
2022/09/28 11:39:21;;;;;;;;;;;16.60;69.00;;;11.52;91.82;93995.25;4990920;28;20419;-47
2022/09/28 11:42:03;;;;;;;;;;;16.60;69.10;;;11.48;90.86;93987.06;5002482;28;19910;-46
2022/09/28 11:44:50;;;;;;;;;;;16.50;69.10;;;11.45;89.60;93982.34;4992234;28;19909;-48
2022/09/28 11:48:09;;;;;;;;;;;16.50;69.00;;;11.42;89.28;93977.63;4967340;28;20327;-44
2022/09/28 11:50:45;;;;;;;;;;;16.50;68.90;;;11.48;90.14;93980.97;4980405;28;20020;-48
2022/09/28 11:53:30;;;;;;;;;;;16.60;69.00;;;11.43;91.39;93971.19;4987374;28;20004;-49
2022/09/28 11:56:35;;;;;;;;;;;16.60;69.00;;;11.50;91.21;93978.75;4977604;28;20229;-51
2022/09/28 11:59:40;;;;;;;;;;;16.60;68.90;;;11.53;91.08;93975.47;4974113;28;20276;-45
2022/09/28 12:02:38;;;;;;;;;;;16.60;68.90;;;11.54;91.38;93969.06;4982681;28;20016;-45
2022/09/28 12:05:29;;;;;;;;;;;16.70;69.10;;;11.62;91.20;93972.84;4991626;28;19916;-45
2022/09/28 12:08:17;;;;;;;;;;;16.80;68.90;;;11.71;92.33;93968.31;4991673;28;19978;-45
2022/09/28 12:11:20;;;;;;;;;;;17.00;68.70;;;11.74;86.35;93951.69;4977566;28;19921;-44
2022/09/28 12:13:50;;;;;;;;;;;17.20;68.60;;;11.75;90.70;93966.59;4965722;28;19909;-45
2022/09/28 12:16:30;;;;;;;;;;;17.30;68.10;;;11.60;90.27;93975.81;4983519;28;19975;-45